createdAt,value
2023-02-11T00:01:21.812Z,1.83
2023-02-11T00:03:49.899Z,1.82
2023-02-11T00:06:18.189Z,1.80
2023-02-11T00:08:46.434Z,1.79
2023-02-11T00:11:15.826Z,1.77
2023-02-11T00:13:45.869Z,1.78
2023-02-11T00:16:16.802Z,1.76
2023-02-11T00:18:45.151Z,1.76
2023-02-11T00:21:14.833Z,1.77
2023-02-11T00:23:43.485Z,1.77
2023-02-11T00:26:13.673Z,1.77
2023-02-11T00:28:45.287Z,1.79
2023-02-11T00:31:14.053Z,1.79
2023-02-11T00:33:42.649Z,1.80
2023-02-11T00:36:14.156Z,1.80
2023-02-11T00:38:44.172Z,1.83
2023-02-11T00:41:13.018Z,1.83
2023-02-11T00:43:41.440Z,1.84
2023-02-11T00:46:10.728Z,1.85
2023-02-11T00:48:38.834Z,1.89
2023-02-11T00:51:07.432Z,1.91
2023-02-11T00:53:35.883Z,1.94
2023-02-11T00:56:04.260Z,1.96
2023-02-11T00:58:32.374Z,1.99
2023-02-11T01:01:00.596Z,2.00
2023-02-11T01:03:30.103Z,2.04
2023-02-11T01:05:58.018Z,2.06
2023-02-11T01:08:25.945Z,2.08
2023-02-11T01:10:58.292Z,2.09
2023-02-11T01:13:27.952Z,2.12
2023-02-11T01:15:58.710Z,2.14
2023-02-11T01:18:27.102Z,2.15
2023-02-11T01:20:56.435Z,2.17
2023-02-11T01:23:24.614Z,2.20
2023-02-11T01:25:53.117Z,2.20
2023-02-11T01:28:22.977Z,2.21
2023-02-11T01:30:51.663Z,2.21
2023-02-11T01:33:19.409Z,2.23
2023-02-11T01:35:47.870Z,2.24
2023-02-11T01:38:19.331Z,2.26
2023-02-11T01:40:51.916Z,2.27
2023-02-11T01:43:19.794Z,2.28
2023-02-11T01:45:58.414Z,2.30
2023-02-11T01:48:30.304Z,2.30
2023-02-11T01:51:04.345Z,2.31
2023-02-11T01:53:52.342Z,2.31
2023-02-11T01:56:39.253Z,2.33
2023-02-11T01:59:11.324Z,2.33
2023-02-11T02:01:42.473Z,2.35
2023-02-11T02:04:11.914Z,2.33
2023-02-11T02:06:49.055Z,2.34
2023-02-11T02:09:23.154Z,2.35
2023-02-11T02:11:51.953Z,2.36
2023-02-11T02:14:20.149Z,2.34
2023-02-11T02:16:48.528Z,2.34
2023-02-11T02:19:51.392Z,2.33
2023-02-11T02:22:55.195Z,2.35
2023-02-11T02:26:13.839Z,2.35
2023-02-11T02:29:12.136Z,2.35
2023-02-11T02:32:13.471Z,2.36
2023-02-11T02:34:51.342Z,2.37
2023-02-11T02:37:25.411Z,2.37
2023-02-11T02:39:53.412Z,2.36
2023-02-11T02:42:22.288Z,2.37
2023-02-11T02:44:50.749Z,2.36
2023-02-11T02:47:18.541Z,2.35
2023-02-11T02:49:47.727Z,2.34
2023-02-11T02:52:27.648Z,2.32
2023-02-11T02:55:09.998Z,2.32
2023-02-11T02:57:53.827Z,2.31
2023-02-11T03:00:30.918Z,2.30
2023-02-11T03:03:11.032Z,2.29
2023-02-11T03:05:50.138Z,2.31
2023-02-11T03:08:25.598Z,2.30
2023-02-11T03:10:56.249Z,2.30
2023-02-11T03:13:32.000Z,2.29
2023-02-11T03:16:03.771Z,2.27
2023-02-11T03:18:34.374Z,2.27
2023-02-11T03:21:06.252Z,2.27
2023-02-11T03:23:38.700Z,2.25
2023-02-11T03:26:12.612Z,2.24
2023-02-11T03:28:45.564Z,2.22
2023-02-11T03:31:28.126Z,2.21
2023-02-11T03:34:05.232Z,2.21
2023-02-11T03:36:41.005Z,2.22
2023-02-11T03:39:12.613Z,2.22
2023-02-11T03:41:43.193Z,2.20
2023-02-11T03:44:14.914Z,2.21
2023-02-11T03:46:49.014Z,2.21
2023-02-11T03:49:20.095Z,2.20
2023-02-11T03:51:52.723Z,2.21
2023-02-11T03:54:22.094Z,2.22
2023-02-11T03:56:54.417Z,2.22
2023-02-11T03:59:22.989Z,2.24
2023-02-11T04:01:51.007Z,2.24
2023-02-11T04:04:19.047Z,2.25
2023-02-11T04:06:46.859Z,2.26
2023-02-11T04:09:16.141Z,2.26
2023-02-11T04:11:43.894Z,2.29
2023-02-11T04:14:11.678Z,2.29
2023-02-11T04:16:39.610Z,2.28
2023-02-11T04:19:07.931Z,2.28
2023-02-11T04:21:35.657Z,2.30
2023-02-11T04:24:03.429Z,2.31
2023-02-11T04:26:32.540Z,2.31
2023-02-11T04:29:00.240Z,2.33
2023-02-11T04:31:28.141Z,2.34
2023-02-11T04:33:56.234Z,2.36
2023-02-11T04:36:24.037Z,2.38
2023-02-11T04:38:51.811Z,2.38
2023-02-11T04:41:19.677Z,2.41
2023-02-11T04:43:48.808Z,2.42
2023-02-11T04:46:16.530Z,2.44
2023-02-11T04:48:44.338Z,2.46
2023-02-11T04:51:12.216Z,2.48
2023-02-11T04:53:39.981Z,2.50
2023-02-11T04:56:08.174Z,2.52
2023-02-11T04:58:36.060Z,2.54
2023-02-11T05:01:08.770Z,2.57
2023-02-11T05:03:37.234Z,2.58
2023-02-11T05:06:06.008Z,2.59
2023-02-11T05:08:34.380Z,2.60
2023-02-11T05:11:02.974Z,2.60
2023-02-11T05:13:31.021Z,2.62
2023-02-11T05:15:58.774Z,2.63
2023-02-11T05:18:27.956Z,2.63
2023-02-11T05:20:55.747Z,2.64
2023-02-11T05:23:23.655Z,2.64
2023-02-11T05:25:51.679Z,2.64
2023-02-11T05:28:20.010Z,2.66
2023-02-11T05:30:47.853Z,2.65
2023-02-11T05:33:15.782Z,2.63
2023-02-11T05:35:45.028Z,2.63
2023-02-11T05:38:13.042Z,2.62
2023-02-11T05:40:40.884Z,2.63
2023-02-11T05:43:08.779Z,2.63
2023-02-11T05:45:37.202Z,2.63
2023-02-11T05:48:05.213Z,2.62
2023-02-11T05:50:33.034Z,2.63
2023-02-11T05:53:02.121Z,2.63
2023-02-11T05:55:29.958Z,2.63
2023-02-11T05:57:57.754Z,2.64
2023-02-11T06:00:26.066Z,2.63
2023-02-11T06:02:53.930Z,2.62
2023-02-11T06:05:21.698Z,2.61
2023-02-11T06:07:49.525Z,2.59
2023-02-11T06:10:18.810Z,2.57
2023-02-11T06:12:46.582Z,2.57
2023-02-11T06:15:14.339Z,2.57
2023-02-11T06:17:42.174Z,2.56
2023-02-11T06:20:11.176Z,2.55
2023-02-11T06:22:39.037Z,2.55
2023-02-11T06:25:07.695Z,2.55
2023-02-11T06:27:36.899Z,2.55
2023-02-11T06:30:05.078Z,2.55
2023-02-11T06:32:43.821Z,2.56
2023-02-11T06:35:13.455Z,2.55
2023-02-11T06:37:41.252Z,2.56
2023-02-11T06:40:09.674Z,2.55
2023-02-11T06:42:39.901Z,2.55
2023-02-11T06:45:09.374Z,2.57
2023-02-11T06:47:37.944Z,2.57
2023-02-11T06:50:06.431Z,2.59
2023-02-11T06:52:34.672Z,2.58
2023-02-11T06:55:02.607Z,2.59
2023-02-11T06:57:31.439Z,2.59
2023-02-11T07:00:00.600Z,2.58
2023-02-11T07:02:28.636Z,2.58
2023-02-11T07:04:56.528Z,2.59
2023-02-11T07:07:24.308Z,2.61
2023-02-11T07:09:52.151Z,2.62
2023-02-11T07:12:19.909Z,2.62
2023-02-11T07:14:47.645Z,2.62
2023-02-11T07:17:16.934Z,2.64
2023-02-11T07:19:44.732Z,2.65
2023-02-11T07:22:12.644Z,2.65
2023-02-11T07:24:40.475Z,2.66
2023-02-11T07:27:08.757Z,2.66
2023-02-11T07:29:36.502Z,2.66
2023-02-11T07:32:04.440Z,2.67
2023-02-11T07:34:33.866Z,2.67
2023-02-11T07:37:01.633Z,2.67
2023-02-11T07:39:29.502Z,2.67
2023-02-11T07:41:58.400Z,2.66
2023-02-11T07:44:26.701Z,2.67
2023-02-11T07:46:54.582Z,2.67
2023-02-11T07:49:22.592Z,2.69
2023-02-11T07:51:52.056Z,2.71
2023-02-11T07:54:20.019Z,2.71
2023-02-11T07:56:48.009Z,2.73
2023-02-11T07:59:15.900Z,2.76
2023-02-11T08:01:43.847Z,2.80
2023-02-11T08:04:11.798Z,2.83
2023-02-11T08:06:43.106Z,2.85
2023-02-11T08:09:16.254Z,2.87
2023-02-11T08:11:44.750Z,2.89
2023-02-11T08:14:13.417Z,2.91
2023-02-11T08:16:41.876Z,2.94
2023-02-11T08:19:14.177Z,2.95
2023-02-11T08:21:42.608Z,2.96
2023-02-11T08:24:12.849Z,2.99
2023-02-11T08:26:41.004Z,3.00
2023-02-11T08:29:11.660Z,3.02
2023-02-11T08:31:41.456Z,3.04
2023-02-11T08:34:11.347Z,3.07
2023-02-11T08:36:40.622Z,3.10
2023-02-11T08:39:19.099Z,3.14
2023-02-11T08:41:49.768Z,3.17
2023-02-11T08:44:18.348Z,3.20
2023-02-11T08:46:46.283Z,3.24
2023-02-11T08:49:15.437Z,3.27
2023-02-11T08:51:43.862Z,3.30
2023-02-11T08:54:12.091Z,3.33
2023-02-11T08:56:40.559Z,3.38
2023-02-11T08:59:12.088Z,3.40
2023-02-11T09:01:39.987Z,3.44
2023-02-11T09:04:07.742Z,3.45
2023-02-11T09:06:35.547Z,3.47
2023-02-11T09:09:03.308Z,3.49
2023-02-11T09:11:33.775Z,3.51
2023-02-11T09:14:02.269Z,3.54
2023-02-11T09:16:32.881Z,3.57
2023-02-11T09:19:02.316Z,3.59
2023-02-11T09:21:30.705Z,3.63
2023-02-11T09:23:58.516Z,3.65
2023-02-11T09:26:28.738Z,3.68
2023-02-11T09:28:57.057Z,3.68
2023-02-11T09:31:27.119Z,3.69
2023-02-11T09:34:00.509Z,3.72
2023-02-11T09:36:30.777Z,3.75
2023-02-11T09:39:06.030Z,3.77
2023-02-11T09:41:59.292Z,3.78
2023-02-11T09:44:29.501Z,3.81
2023-02-11T09:47:00.616Z,3.86
2023-02-11T09:49:36.333Z,3.91
2023-02-11T09:52:09.361Z,3.95
2023-02-11T09:54:40.171Z,4.00
2023-02-11T09:57:22.870Z,4.07
2023-02-11T09:59:56.595Z,4.14
2023-02-11T10:02:35.311Z,4.21
2023-02-11T10:05:31.381Z,4.26
2023-02-11T10:08:09.873Z,4.31
2023-02-11T10:10:48.930Z,4.35
2023-02-11T10:13:44.008Z,4.39
2023-02-11T10:16:24.559Z,4.43
2023-02-11T10:19:09.685Z,4.48
2023-02-11T10:21:46.700Z,4.49
2023-02-11T10:24:17.926Z,4.53
2023-02-11T10:26:46.672Z,4.56
2023-02-11T10:29:27.007Z,4.58
2023-02-11T10:31:57.960Z,4.61
2023-02-11T10:34:26.232Z,4.64
2023-02-11T10:36:55.478Z,4.64
2023-02-11T10:39:26.489Z,4.69
2023-02-11T10:41:58.105Z,4.73
2023-02-11T10:44:31.955Z,4.74
2023-02-11T10:47:03.863Z,4.78
2023-02-11T10:49:38.014Z,4.80
2023-02-11T10:52:25.155Z,4.80
2023-02-11T10:55:05.499Z,4.82
2023-02-11T10:57:38.959Z,4.85
2023-02-11T11:00:27.227Z,4.87
2023-02-11T11:02:57.763Z,4.87
2023-02-11T11:05:32.236Z,4.90
2023-02-11T11:08:04.995Z,4.92
2023-02-11T11:10:43.443Z,4.93
2023-02-11T11:13:32.953Z,4.93
2023-02-11T11:16:25.543Z,4.93
2023-02-11T11:18:55.397Z,4.90
2023-02-11T11:21:25.337Z,4.86
2023-02-11T11:24:00.313Z,4.82
2023-02-11T11:26:30.578Z,4.81
2023-02-11T11:29:02.131Z,4.78
2023-02-11T11:31:34.418Z,4.77
2023-02-11T11:34:07.758Z,4.77
2023-02-11T11:36:38.700Z,4.75
2023-02-11T11:39:21.796Z,4.75
2023-02-11T11:42:24.833Z,4.74
2023-02-11T11:44:59.274Z,4.75
2023-02-11T11:47:35.316Z,4.77
2023-02-11T11:50:28.919Z,4.79
2023-02-11T11:53:04.139Z,4.82
2023-02-11T11:55:39.115Z,4.85
2023-02-11T11:58:14.547Z,4.86
2023-02-11T12:00:53.179Z,4.88
2023-02-11T12:03:59.829Z,4.88
2023-02-11T12:06:39.208Z,4.88
2023-02-11T12:09:16.925Z,4.88
2023-02-11T12:12:21.460Z,4.89
2023-02-11T12:15:00.505Z,4.91
2023-02-11T12:17:44.874Z,4.91
2023-02-11T12:20:28.829Z,4.91
2023-02-11T12:23:09.297Z,4.91
2023-02-11T12:25:44.678Z,4.93
2023-02-11T12:28:26.777Z,4.97
2023-02-11T12:31:13.397Z,5.03
2023-02-11T12:34:26.524Z,5.14
2023-02-11T12:37:03.443Z,5.22
2023-02-11T12:39:42.420Z,5.27
2023-02-11T12:42:44.502Z,5.35
2023-02-11T12:45:25.994Z,5.41
2023-02-11T12:48:10.518Z,5.48
2023-02-11T12:50:50.115Z,5.53
2023-02-11T12:53:41.388Z,5.59
2023-02-11T12:56:16.119Z,5.64
2023-02-11T12:58:45.967Z,5.69
2023-02-11T13:01:23.325Z,5.74
2023-02-11T13:03:55.766Z,5.79
2023-02-11T13:06:30.536Z,5.85
2023-02-11T13:09:01.934Z,5.91
2023-02-11T13:11:33.231Z,6.00
2023-02-11T13:14:05.490Z,6.08
2023-02-11T13:16:39.466Z,6.18
2023-02-11T13:19:18.398Z,6.25
2023-02-11T13:22:03.915Z,6.31
2023-02-11T13:24:44.087Z,6.39
2023-02-11T13:27:32.850Z,6.43
2023-02-11T13:30:26.911Z,6.49
2023-02-11T13:33:33.768Z,6.52
2023-02-11T13:36:17.701Z,6.55
2023-02-11T13:39:04.395Z,6.58
2023-02-11T13:41:35.148Z,6.59
2023-02-11T13:44:25.723Z,6.58
2023-02-11T13:46:58.239Z,6.61
2023-02-11T13:49:32.922Z,6.62
2023-02-11T13:52:03.970Z,6.63
2023-02-11T13:54:35.438Z,6.63
2023-02-11T13:57:28.110Z,6.64
2023-02-11T13:59:57.439Z,6.65
2023-02-11T14:02:46.911Z,6.64
2023-02-11T14:09:08.796Z,6.65
2023-02-11T14:11:50.206Z,6.63
2023-02-11T14:14:23.758Z,6.61
2023-02-11T14:17:21.265Z,6.61
2023-02-11T14:19:50.076Z,6.61
2023-02-11T14:22:25.895Z,6.59
2023-02-11T14:24:57.419Z,6.57
2023-02-11T14:27:30.603Z,6.57
2023-02-11T14:30:32.879Z,6.54
2023-02-11T14:33:42.249Z,6.56
2023-02-11T14:36:24.035Z,6.57
2023-02-11T14:39:06.873Z,6.58
2023-02-11T14:41:36.769Z,6.57
2023-02-11T14:44:07.639Z,6.58
2023-02-11T14:46:36.076Z,6.58
2023-02-11T14:49:06.468Z,6.56
2023-02-11T14:51:37.121Z,6.55
2023-02-11T14:54:15.290Z,6.53
2023-02-11T14:56:44.413Z,6.51
2023-02-11T14:59:18.228Z,6.50
2023-02-11T15:01:50.010Z,6.49
2023-02-11T15:04:26.103Z,6.45
2023-02-11T15:06:55.271Z,6.42
2023-02-11T15:09:31.065Z,6.40
2023-02-11T15:11:59.315Z,6.37
2023-02-11T15:14:30.787Z,6.37
2023-02-11T15:17:01.621Z,6.35
2023-02-11T15:19:34.382Z,6.35
2023-02-11T15:22:05.327Z,6.34
2023-02-11T15:24:36.104Z,6.33
2023-02-11T15:27:12.840Z,6.32
2023-02-11T15:29:43.300Z,6.33
2023-02-11T15:32:16.935Z,6.32
2023-02-11T15:34:45.932Z,6.30
2023-02-11T15:37:15.663Z,6.31
2023-02-11T15:39:44.843Z,6.30
2023-02-11T15:42:25.094Z,6.30
2023-02-11T15:45:12.820Z,6.29
2023-02-11T15:47:43.241Z,6.28
2023-02-11T15:50:22.107Z,6.28
2023-02-11T15:52:50.993Z,6.29
2023-02-11T15:55:21.223Z,6.28
2023-02-11T15:57:55.109Z,6.29
2023-02-11T16:00:25.962Z,6.27
2023-02-11T16:02:54.601Z,6.25
2023-02-11T16:05:29.361Z,6.24
2023-02-11T16:07:58.181Z,6.22
2023-02-11T16:10:30.057Z,6.22
2023-02-11T16:13:18.090Z,6.19
2023-02-11T16:15:50.705Z,6.17
2023-02-11T16:18:37.673Z,6.14
2023-02-11T16:21:08.853Z,6.14
2023-02-11T16:23:38.987Z,6.16
2023-02-11T16:26:13.834Z,6.17
2023-02-11T16:28:42.204Z,6.15
2023-02-11T16:31:10.662Z,6.16
2023-02-11T16:33:38.538Z,6.14
2023-02-11T16:36:13.085Z,6.12
2023-02-11T16:38:45.004Z,6.11
2023-02-11T16:41:14.308Z,6.09
2023-02-11T16:43:42.165Z,6.06
2023-02-11T16:46:14.984Z,6.04
2023-02-11T16:48:42.889Z,6.04
2023-02-11T16:51:12.230Z,6.04
2023-02-11T16:53:40.125Z,6.04
2023-02-11T16:56:08.385Z,6.03
2023-02-11T16:58:37.648Z,6.05
2023-02-11T17:01:05.636Z,6.03
2023-02-11T17:03:37.472Z,6.03
2023-02-11T17:06:11.760Z,6.05
2023-02-11T17:08:39.669Z,6.03
2023-02-11T17:11:07.547Z,6.03
2023-02-11T17:13:36.927Z,6.02
2023-02-11T17:16:04.755Z,6.01
2023-02-11T17:18:32.722Z,6.00
2023-02-11T17:21:01.293Z,6.00
2023-02-11T17:23:29.405Z,5.98
2023-02-11T17:25:57.837Z,5.98
2023-02-11T17:28:25.632Z,5.96
2023-02-11T17:30:54.894Z,5.96
2023-02-11T17:33:22.806Z,5.98
2023-02-11T17:35:51.319Z,5.99
2023-02-11T17:38:19.374Z,5.98
2023-02-11T17:40:47.201Z,5.97
2023-02-11T17:43:15.809Z,5.97
2023-02-11T17:45:43.655Z,5.97
2023-02-11T17:48:12.981Z,5.94
2023-02-11T17:50:40.713Z,5.93
2023-02-11T17:53:08.739Z,5.94
2023-02-11T17:55:38.376Z,5.93
2023-02-11T17:58:06.272Z,5.92
2023-02-11T18:00:34.228Z,5.93
2023-02-11T18:03:02.910Z,5.94
2023-02-11T18:08:28.131Z,5.95
2023-02-11T18:10:56.110Z,5.95
2023-02-11T18:13:23.861Z,5.94
2023-02-11T18:15:51.980Z,5.95
2023-02-11T18:18:20.061Z,5.96
2023-02-11T18:20:58.462Z,5.98
2023-02-11T18:23:26.883Z,5.98
2023-02-11T18:25:54.862Z,5.99
2023-02-11T18:28:22.806Z,6.00
2023-02-11T18:30:58.159Z,6.01
2023-02-11T18:33:26.669Z,6.00
2023-02-11T18:35:54.571Z,6.00
2023-02-11T18:38:24.162Z,5.98
2023-02-11T18:40:52.415Z,5.95
2023-02-11T18:43:20.861Z,5.93
2023-02-11T18:45:50.984Z,5.91
2023-02-11T18:48:20.189Z,5.90
2023-02-11T18:50:47.928Z,5.89
2023-02-11T18:53:16.085Z,5.88
2023-02-11T18:55:46.817Z,5.85
2023-02-11T18:58:15.275Z,5.86
2023-02-11T19:00:46.068Z,5.86
2023-02-11T19:03:13.975Z,5.89
2023-02-11T19:05:42.923Z,5.91
2023-02-11T19:08:11.113Z,5.92
2023-02-11T19:10:41.331Z,5.95
2023-02-11T19:13:10.947Z,5.96
2023-02-11T19:15:42.043Z,5.98
2023-02-11T19:18:10.489Z,5.96
2023-02-11T19:20:40.506Z,5.96
2023-02-11T19:23:08.531Z,5.94
2023-02-11T19:25:36.344Z,5.95
2023-02-11T19:28:04.673Z,5.94
2023-02-11T19:30:33.859Z,5.96
2023-02-11T19:33:01.734Z,5.98
2023-02-11T19:35:29.538Z,5.96
2023-02-11T19:37:57.496Z,5.95
2023-02-11T19:40:25.293Z,5.94
2023-02-11T19:42:53.102Z,5.97
2023-02-11T19:45:20.949Z,5.96
2023-02-11T19:47:50.026Z,5.94
2023-02-11T19:50:18.257Z,5.98
2023-02-11T19:52:46.063Z,6.00
2023-02-11T19:55:13.970Z,6.03
2023-02-11T19:57:41.833Z,6.06
2023-02-11T20:00:11.174Z,6.06
2023-02-11T20:02:42.125Z,6.05
2023-02-11T20:05:11.389Z,6.04
2023-02-11T20:07:39.199Z,6.04
2023-02-11T20:10:08.778Z,6.06
2023-02-11T20:12:37.617Z,6.08
2023-02-11T20:15:06.518Z,6.12
2023-02-11T20:17:34.349Z,6.12
2023-02-11T20:20:02.228Z,6.13
2023-02-11T20:22:31.488Z,6.13
2023-02-11T20:24:59.325Z,6.15
2023-02-11T20:27:29.020Z,6.15
2023-02-11T20:29:56.830Z,6.14
2023-02-11T20:32:24.629Z,6.14
2023-02-11T20:34:52.589Z,6.15
2023-02-11T20:37:20.731Z,6.16
2023-02-11T20:39:50.894Z,6.13
2023-02-11T20:42:18.675Z,6.16
2023-02-11T20:44:46.531Z,6.17
2023-02-11T20:47:14.378Z,6.17
2023-02-11T20:49:42.145Z,6.15
2023-02-11T20:52:10.082Z,6.14
2023-02-11T20:54:37.802Z,6.13
2023-02-11T20:57:07.179Z,6.14
2023-02-11T20:59:35.247Z,6.16
2023-02-11T21:02:03.765Z,6.18
2023-02-11T21:04:32.617Z,6.21
2023-02-11T21:07:02.577Z,6.21
2023-02-11T21:09:32.224Z,6.22
2023-02-11T21:12:00.460Z,6.21
2023-02-11T21:14:29.998Z,6.20
2023-02-11T21:16:58.136Z,6.21
2023-02-11T21:19:26.238Z,6.23
2023-02-11T21:21:55.112Z,6.22
2023-02-11T21:24:23.708Z,6.22
2023-02-11T21:26:51.557Z,6.22
2023-02-11T21:29:19.297Z,6.20
2023-02-11T21:31:48.512Z,6.19
2023-02-11T21:34:16.794Z,6.16
2023-02-11T21:36:45.212Z,6.20
2023-02-11T21:39:13.605Z,6.21
2023-02-11T21:41:41.406Z,6.19
2023-02-11T21:44:09.343Z,6.19
2023-02-11T21:46:37.155Z,6.19
2023-02-11T21:49:06.336Z,6.18
2023-02-11T21:51:34.202Z,6.16
2023-02-11T21:54:03.334Z,6.16
2023-02-11T21:56:33.432Z,6.16
2023-02-11T21:59:01.520Z,6.16
2023-02-11T22:01:31.018Z,6.17
2023-02-11T22:03:59.767Z,6.17
2023-02-11T22:06:31.707Z,6.21
2023-02-11T22:09:02.676Z,6.23
2023-02-11T22:11:30.997Z,6.23
2023-02-11T22:13:59.060Z,6.23
2023-02-11T22:16:30.825Z,6.26
2023-02-11T22:18:59.376Z,6.28
2023-02-11T22:21:27.381Z,6.28
2023-02-11T22:23:57.397Z,6.24
2023-02-11T22:26:27.344Z,6.25
2023-02-11T22:28:56.282Z,6.24
2023-02-11T22:31:25.921Z,6.25
2023-02-11T22:33:53.877Z,6.26
2023-02-11T22:36:23.824Z,6.29
2023-02-11T22:38:52.005Z,6.31
2023-02-11T22:41:21.966Z,6.31
2023-02-11T22:43:50.166Z,6.32
2023-02-11T22:46:19.463Z,6.32
2023-02-11T22:48:48.168Z,6.30
2023-02-11T22:51:17.910Z,6.30
2023-02-11T22:53:45.848Z,6.28
2023-02-11T22:56:15.858Z,6.27
2023-02-11T22:58:45.387Z,6.28
2023-02-11T23:01:15.596Z,6.30
2023-02-11T23:06:36.395Z,6.30
2023-02-11T23:09:04.855Z,6.30
2023-02-11T23:11:32.954Z,6.31
2023-02-11T23:14:02.133Z,6.31
2023-02-11T23:16:32.275Z,6.33
2023-02-11T23:19:01.271Z,6.36
2023-02-11T23:21:31.544Z,6.37
2023-02-11T23:24:02.468Z,6.35
2023-02-11T23:26:30.926Z,6.35
2023-02-11T23:28:59.689Z,6.33
2023-02-11T23:31:29.564Z,6.31
2023-02-11T23:33:57.975Z,6.31
2023-02-11T23:36:25.904Z,6.33
2023-02-11T23:38:53.811Z,6.33
2023-02-11T23:41:24.923Z,6.34
2023-02-11T23:43:54.193Z,6.35
